< < Back
Terminal Aerodrome Forecast


Current Version              Previous Versions:   1  2  3  4  5  6  7  8  9  

Terminal Aerodrome Forecast

795
FTUS44 KMOB 270500
TAFPNS
TAF
KPNS 270538Z 2706/2806 27007KT P6SM SKC
     FM270800 32008KT P6SM SKC
     FM271500 34012G18KT P6SM SKC
     FM272300 35007KT P6SM SKC=

Latest METAR

236
SAUS70 KWBC 271900 RRE
MTRPNS
METAR KPNS 271853Z 33013KT 10SM CLR 15/M02 A3032 RMK AO2 SLP270
T01501017


USA.gov is the U.S. government's official web portal to all federal, state and local government web resources and services.